Time;durP1;ratioP1;P1;durP2;ratioP2;P2;SDS_P1;SDS_P2;PMS_P1;PMS_P2;Temp;Humidity;BMP_temperature;BMP_pressure;BME280_temperature;BME280_humidity;BME280_pressure;Samples;Min_cycle;Max_cycle;Signal;HPM_P1;HPM_P2
2023/01/20 00:02:09;;;;;;;5.43;2.92;;;3.70;99.90;;;3.43;100.00;100483.75;5144541;28;20046;-64
2023/01/20 00:04:41;;;;;;;4.78;2.63;;;3.70;99.90;;;3.40;100.00;100484.50;5159158;28;20435;-63
2023/01/20 00:07:15;;;;;;;5.82;2.60;;;3.70;99.90;;;3.36;100.00;100479.94;5143694;28;20043;-64
2023/01/20 00:09:47;;;;;;;5.70;2.85;;;3.60;99.90;;;3.35;100.00;100483.31;5160438;28;20042;-65
2023/01/20 00:12:19;;;;;;;5.82;2.72;;;3.60;99.90;;;3.32;100.00;100487.38;5163980;28;20081;-66
2023/01/20 00:14:51;;;;;;;6.07;2.40;;;3.60;99.90;;;3.29;100.00;100488.13;5163985;28;20507;-66
2023/01/20 00:17:24;;;;;;;3.97;1.75;;;3.50;99.90;;;3.24;100.00;100489.53;5163763;28;20535;-64
2023/01/20 00:19:56;;;;;;;5.05;2.50;;;3.50;99.90;;;3.18;100.00;100495.19;5163647;28;20046;-65
2023/01/20 00:22:30;;;;;;;5.47;2.50;;;3.50;99.90;;;3.14;100.00;100506.13;5163633;28;20073;-65
2023/01/20 00:25:03;;;;;;;5.78;3.00;;;3.40;99.90;;;3.11;100.00;100499.91;5163964;28;20579;-64
2023/01/20 00:27:35;;;;;;;4.75;2.90;;;3.40;99.90;;;3.06;100.00;100507.34;5163658;28;20093;-66
2023/01/20 00:30:09;;;;;;;5.28;2.67;;;3.30;99.90;;;3.02;100.00;100502.81;5163692;28;20054;-66
2023/01/20 00:32:44;;;;;;;4.15;2.33;;;3.30;99.90;;;2.99;100.00;100498.34;5163400;28;20066;-66
2023/01/20 00:35:16;;;;;;;4.57;2.30;;;3.30;99.90;;;2.97;100.00;100504.22;5195032;28;20511;-66
2023/01/20 00:37:50;;;;;;;6.38;2.65;;;3.30;99.90;;;2.98;100.00;100506.00;5163336;28;20045;-66
2023/01/20 00:40:22;;;;;;;7.82;2.88;;;3.30;99.90;;;2.93;100.00;100513.47;5178398;28;20056;-66
2023/01/20 00:42:54;;;;;;;5.18;2.67;;;3.20;99.90;;;2.89;100.00;100511.50;5163131;28;20049;-66
2023/01/20 00:45:26;;;;;;;5.32;2.70;;;3.20;99.90;;;2.91;100.00;100516.72;5163174;28;20065;-65
2023/01/20 00:47:58;;;;;;;6.13;2.70;;;3.20;99.90;;;2.92;100.00;100519.38;5163047;28;20054;-66
2023/01/20 00:50:30;;;;;;;4.55;2.58;;;3.20;99.90;;;2.90;100.00;100518.41;5163611;28;20038;-66
2023/01/20 00:53:06;;;;;;;4.40;2.38;;;3.20;99.90;;;2.90;100.00;100520.09;5163377;28;20038;-66
2023/01/20 00:55:38;;;;;;;6.70;2.72;;;3.20;99.90;;;2.89;100.00;100526.06;5163662;28;20483;-66
2023/01/20 00:58:10;;;;;;;6.22;2.55;;;3.20;99.90;;;2.90;100.00;100533.88;5163181;28;20511;-66
2023/01/20 01:00:44;;;;;;;6.70;2.92;;;3.20;99.90;;;2.90;100.00;100528.72;5163133;28;20518;-66
2023/01/20 01:03:17;;;;;;;6.22;2.92;;;3.20;99.90;;;2.93;100.00;100528.00;5162976;28;20074;-66
2023/01/20 01:05:51;;;;;;;8.57;2.85;;;3.20;99.90;;;2.95;100.00;100532.47;5163215;28;20051;-66
2023/01/20 01:08:25;;;;;;;6.63;3.28;;;3.20;99.90;;;2.94;100.00;100533.28;5163445;28;20050;-66
2023/01/20 01:10:58;;;;;;;6.68;2.78;;;3.20;99.90;;;2.96;100.00;100539.38;5163187;28;20539;-66
2023/01/20 01:13:31;;;;;;;6.65;2.95;;;3.30;99.90;;;2.98;100.00;100548.09;5163039;28;20069;-66
2023/01/20 01:16:03;;;;;;;6.32;3.10;;;3.30;99.90;;;3.01;100.00;100544.81;5163114;28;20443;-65
2023/01/20 01:18:35;;;;;;;7.45;3.03;;;3.30;99.90;;;3.03;100.00;100548.38;5194478;28;20141;-64
2023/01/20 01:21:09;;;;;;;6.50;3.00;;;3.30;99.90;;;3.06;100.00;100547.66;5179077;28;20034;-64
2023/01/20 01:23:43;;;;;;;6.35;3.22;;;3.30;99.90;;;3.06;100.00;100550.22;5167283;28;20048;-65
2023/01/20 01:26:15;;;;;;;6.25;2.67;;;3.30;99.90;;;3.08;100.00;100551.25;5167039;28;20046;-66
2023/01/20 01:28:49;;;;;;;6.00;2.65;;;3.40;99.90;;;3.09;100.00;100556.47;5167110;28;20054;-66
2023/01/20 01:31:21;;;;;;;5.25;2.38;;;3.40;99.90;;;3.13;100.00;100555.88;5167205;28;20038;-66
2023/01/20 01:33:54;;;;;;;4.43;2.42;;;3.40;99.90;;;3.14;100.00;100555.06;5167128;28;20427;-66
2023/01/20 01:36:26;;;;;;;5.97;2.78;;;3.40;99.90;;;3.14;100.00;100565.38;5167258;28;20057;-66
2023/01/20 01:39:00;;;;;;;7.05;2.70;;;3.40;99.90;;;3.12;100.00;100561.78;5166762;28;20069;-66
2023/01/20 01:41:32;;;;;;;6.85;2.75;;;3.40;99.90;;;3.12;100.00;100560.91;5181968;28;20038;-66
2023/01/20 01:44:08;;;;;;;7.32;2.50;;;3.40;99.90;;;3.10;100.00;100560.81;5166946;28;20046;-66
2023/01/20 01:46:41;;;;;;;6.03;2.75;;;3.40;99.90;;;3.10;100.00;100570.25;5166641;28;20050;-65
2023/01/20 01:49:21;;;;;;;5.30;2.40;;;3.40;99.90;;;3.08;100.00;100570.16;5166696;28;20046;-65
2023/01/20 01:51:59;;;;;;;4.88;2.50;;;3.30;99.90;;;3.08;100.00;100574.41;5166892;28;20049;-65
2023/01/20 01:54:38;;;;;;;5.57;2.45;;;3.40;99.90;;;3.10;100.00;100577.97;5166954;28;20046;-66
2023/01/20 01:57:12;;;;;;;6.43;2.63;;;3.30;99.90;;;3.12;100.00;100586.66;5167496;28;20049;-66
2023/01/20 01:59:44;;;;;;;6.00;2.92;;;3.40;99.90;;;3.12;100.00;100586.66;5167349;28;20046;-65
2023/01/20 02:02:17;;;;;;;6.30;2.90;;;3.40;99.90;;;3.14;100.00;100585.09;5167082;28;20046;-66
2023/01/20 02:04:49;;;;;;;6.28;2.75;;;3.40;99.90;;;3.13;100.00;100579.06;5167016;28;20050;-66
2023/01/20 02:07:22;;;;;;;6.57;2.70;;;3.40;99.90;;;3.14;100.00;100582.53;5165154;28;20113;-66
2023/01/20 02:09:57;;;;;;;7.00;2.75;;;3.40;99.90;;;3.08;100.00;100587.28;5166528;28;20109;-66
2023/01/20 02:12:30;;;;;;;6.78;3.05;;;3.40;99.90;;;3.01;100.00;100582.56;5166329;28;20128;-66
2023/01/20 02:15:04;;;;;;;5.88;2.63;;;3.30;99.90;;;2.96;100.00;100582.28;5166625;28;20093;-65
2023/01/20 02:17:47;;;;;;;5.40;2.50;;;3.30;99.90;;;2.91;100.00;100587.13;5166486;28;20137;-66
2023/01/20 02:20:53;;;;;;;6.28;2.42;;;3.20;99.90;;;2.90;100.00;100584.47;5167103;28;20046;-66
2023/01/20 02:23:54;;;;;;;6.95;2.60;;;3.20;99.90;;;2.90;100.00;100589.63;5166783;28;20414;-66
2023/01/20 02:27:03;;;;;;;6.82;2.72;;;3.20;99.90;;;2.92;100.00;100594.06;5166811;28;20054;-65
2023/01/20 02:30:10;;;;;;;5.35;2.55;;;3.20;99.90;;;2.94;100.00;100596.75;5166151;28;20109;-66
2023/01/20 02:32:50;;;;;;;5.60;2.80;;;3.20;99.90;;;2.94;100.00;100591.59;5166086;28;20046;-66
2023/01/20 02:35:29;;;;;;;6.22;3.10;;;3.20;99.90;;;2.96;100.00;100596.03;5181445;28;20401;-66
2023/01/20 02:38:13;;;;;;;6.22;3.03;;;3.20;99.90;;;2.98;100.00;100597.00;5180823;28;20085;-66
2023/01/20 02:40:54;;;;;;;5.80;2.63;;;3.30;99.90;;;2.99;100.00;100606.50;5166071;28;20165;-66
2023/01/20 02:43:38;;;;;;;4.38;2.38;;;3.30;99.90;;;3.03;100.00;100606.72;5165888;28;20114;-66
2023/01/20 02:46:16;;;;;;;6.57;2.78;;;3.30;99.90;;;3.05;100.00;100610.28;5166062;28;20124;-66
2023/01/20 02:48:53;;;;;;;6.22;2.80;;;3.30;99.90;;;3.07;100.00;100608.69;5165879;28;20077;-66
2023/01/20 02:51:29;;;;;;;6.10;2.90;;;3.30;99.90;;;3.09;100.00;100609.66;5165899;28;20053;-64
2023/01/20 02:54:06;;;;;;;6.65;2.92;;;3.40;99.90;;;3.11;100.00;100615.78;5165576;28;20053;-65
2023/01/20 02:56:39;;;;;;;8.77;2.97;;;3.40;99.90;;;3.11;100.00;100616.69;5180916;28;20081;-66
2023/01/20 02:59:15;;;;;;;7.38;3.05;;;3.40;99.90;;;3.13;100.00;100621.94;5165653;28;20046;-66
2023/01/20 03:01:53;;;;;;;7.38;3.40;;;3.40;99.90;;;3.16;100.00;100625.59;5165702;28;20132;-66
2023/01/20 03:04:34;;;;;;;8.10;3.10;;;3.40;99.90;;;3.19;100.00;100624.88;5165579;28;20104;-66
2023/01/20 03:07:10;;;;;;;6.47;3.00;;;3.50;99.90;;;3.22;100.00;100630.22;5165424;28;20566;-66
2023/01/20 03:09:48;;;;;;;6.75;3.30;;;3.50;99.90;;;3.23;100.00;100630.31;5166010;28;20101;-65
2023/01/20 03:12:24;;;;;;;6.43;3.00;;;3.50;99.90;;;3.25;100.00;100632.97;5165683;28;20100;-66
2023/01/20 03:14:57;;;;;;;5.70;2.65;;;3.50;99.90;;;3.24;100.00;100633.78;5165628;28;20252;-66
2023/01/20 03:17:29;;;;;;;8.27;3.42;;;3.50;99.90;;;3.22;100.00;100631.13;5165326;28;20047;-66
2023/01/20 03:20:05;;;;;;;8.13;3.92;;;3.50;99.90;;;3.23;100.00;100629.44;5165241;28;20503;-66
2023/01/20 03:22:38;;;;;;;7.45;3.50;;;3.50;99.90;;;3.21;100.00;100638.75;5165432;28;20402;-65
2023/01/20 03:25:13;;;;;;;8.45;3.17;;;3.50;99.90;;;3.21;100.00;100639.66;5165387;28;20077;-66
2023/01/20 03:27:46;;;;;;;8.27;3.03;;;3.50;99.90;;;3.21;100.00;100638.75;5165358;28;20084;-66
2023/01/20 03:30:20;;;;;;;9.63;3.45;;;3.50;99.90;;;3.18;100.00;100641.13;5164895;28;20105;-65
2023/01/20 03:32:53;;;;;;;10.95;3.63;;;3.50;99.90;;;3.18;100.00;100649.75;5180019;28;20120;-66
2023/01/20 03:35:28;;;;;;;9.18;3.80;;;3.50;99.90;;;3.20;100.00;100647.28;5165325;28;20070;-66
2023/01/20 03:38:01;;;;;;;9.95;3.90;;;3.50;99.90;;;3.21;100.00;100644.81;5274297;23;20054;-72
2023/01/20 03:40:43;;;;;;;8.93;3.35;;;3.50;99.90;;;3.19;100.00;100642.91;5145451;28;20050;-72
2023/01/20 03:43:23;;;;;;;10.60;3.95;;;3.50;99.90;;;3.21;100.00;100644.81;5145016;28;20109;-72
2023/01/20 03:46:02;;;;;;;9.73;3.85;;;3.50;99.90;;;3.20;100.00;100644.72;5145564;28;20047;-72
2023/01/20 03:48:42;;;;;;;8.30;3.72;;;3.50;99.90;;;3.21;100.00;100654.22;5160379;28;20297;-71
2023/01/20 03:51:25;;;;;;;11.10;4.05;;;3.50;99.90;;;3.22;100.00;100645.69;5180514;28;20116;-73
2023/01/20 03:54:03;;;;;;;8.90;3.65;;;3.50;99.90;;;3.21;100.00;100656.78;5180354;28;20054;-72
2023/01/20 03:56:41;;;;;;;9.23;3.78;;;3.50;99.90;;;3.20;100.00;100653.34;5165443;28;20053;-72
2023/01/20 03:59:15;;;;;;;8.23;3.83;;;3.50;99.90;;;3.20;100.00;100662.75;5165449;28;20117;-72
2023/01/20 04:01:49;;;;;;;7.63;3.92;;;3.50;99.90;;;3.19;100.00;100658.38;5164941;28;20046;-69
2023/01/20 04:04:22;;;;;;;10.23;4.45;;;3.50;99.90;;;3.17;100.00;100660.84;5164412;28;20101;-71
2023/01/20 04:06:56;;;;;;;9.18;3.70;;;3.50;99.90;;;3.16;100.00;100661.66;5164183;28;20050;-70
2023/01/20 04:09:34;;;;;;;10.80;4.07;;;3.40;99.90;;;3.15;100.00;100671.88;5164109;28;20038;-70
2023/01/20 04:12:07;;;;;;;8.32;3.60;;;3.40;99.90;;;3.13;100.00;100660.56;5179604;28;20137;-69
2023/01/20 04:14:39;;;;;;;8.13;3.45;;;3.40;99.90;;;3.09;100.00;100663.75;5164197;28;20499;-71
2023/01/20 04:17:12;;;;;;;8.98;3.10;;;3.40;99.90;;;3.07;100.00;100667.94;5164194;28;20471;-67
2023/01/20 04:19:44;;;;;;;10.07;3.83;;;3.40;99.90;;;3.06;100.00;100671.28;5163959;28;20174;-68
2023/01/20 04:22:25;;;;;;;7.57;3.22;;;3.30;99.90;;;3.05;100.00;100672.06;5164447;28;20038;-68
2023/01/20 04:25:01;;;;;;;7.25;3.10;;;3.40;99.90;;;3.04;100.00;100676.34;5164097;28;20039;-72
2023/01/20 04:27:34;;;;;;;7.88;3.42;;;3.30;99.90;;;3.05;100.00;100677.22;5162742;28;20104;-68
2023/01/20 04:30:09;;;;;;;8.18;3.38;;;3.30;99.90;;;3.03;100.00;100674.56;5162627;28;20073;-69
2023/01/20 04:32:42;;;;;;;9.30;3.90;;;3.30;99.90;;;3.03;100.00;100678.81;5179120;28;20447;-70
2023/01/20 04:35:17;;;;;;;7.43;3.45;;;3.30;99.90;;;3.01;100.00;100680.44;5165097;28;20050;-72
2023/01/20 04:37:51;;;;;;;8.73;3.58;;;3.30;99.90;;;2.98;100.00;100676.84;5164877;28;20046;-73
2023/01/20 04:40:23;;;;;;;9.15;3.40;;;3.30;99.90;;;2.96;100.00;100681.00;5164551;28;20620;-71
2023/01/20 04:42:55;;;;;;;9.85;4.07;;;3.30;99.90;;;2.96;100.00;100688.75;5179700;28;20050;-72
2023/01/20 04:45:28;;;;;;;8.60;3.35;;;3.30;99.90;;;2.95;100.00;100671.50;5179686;28;20137;-73
2023/01/20 04:48:00;;;;;;;6.20;3.22;;;3.30;99.90;;;2.95;100.00;100681.81;5164595;28;20042;-73
2023/01/20 04:50:32;;;;;;;8.52;3.60;;;3.30;99.90;;;2.95;100.00;100679.22;5164530;28;20162;-72
2023/01/20 04:53:06;;;;;;;7.57;3.67;;;3.30;99.90;;;2.95;100.00;100678.34;5164645;28;20121;-73
2023/01/20 04:55:38;;;;;;;8.00;3.70;;;3.20;99.90;;;2.94;100.00;100689.44;5168002;28;20430;-72
2023/01/20 04:58:11;;;;;;;7.57;3.47;;;3.20;99.90;;;2.92;100.00;100699.63;5186149;28;20454;-72
2023/01/20 05:00:43;;;;;;;8.48;3.55;;;3.20;99.90;;;2.91;100.00;100694.38;5185969;28;20108;-73
2023/01/20 05:03:15;;;;;;;7.57;3.17;;;3.20;99.90;;;2.90;100.00;100698.66;5171177;28;20447;-73
2023/01/20 05:05:53;;;;;;;7.43;3.17;;;3.20;99.90;;;2.89;100.00;100701.13;5186212;28;20084;-72
2023/01/20 05:08:27;;;;;;;9.20;4.15;;;3.20;99.90;;;2.86;100.00;100701.81;5171043;28;20420;-72
2023/01/20 05:10:59;;;;;;;10.27;4.30;;;3.20;99.90;;;2.83;100.00;100705.88;5171071;28;20054;-71
2023/01/20 05:13:32;;;;;;;7.60;3.90;;;3.10;99.90;;;2.79;100.00;100699.63;5171204;28;20042;-72
2023/01/20 05:16:05;;;;;;;8.73;3.80;;;3.10;99.90;;;2.76;100.00;100708.88;5186144;28;20054;-72
2023/01/20 05:18:38;;;;;;;9.68;4.32;;;3.10;99.90;;;2.74;100.00;100706.19;5170811;28;20056;-72
2023/01/20 05:21:10;;;;;;;7.88;3.70;;;3.10;99.90;;;2.71;100.00;100700.84;5171680;28;20503;-72
2023/01/20 05:23:44;;;;;;;9.85;3.90;;;3.10;99.90;;;2.69;100.00;100705.00;5171676;28;20050;-72
2023/01/20 05:26:16;;;;;;;9.52;4.10;;;3.00;99.90;;;2.69;100.00;100707.56;5186720;28;20050;-73
2023/01/20 05:28:48;;;;;;;8.82;3.35;;;3.00;99.90;;;2.67;100.00;100709.13;5171153;28;20050;-72
2023/01/20 05:31:20;;;;;;;8.88;3.80;;;3.00;99.90;;;2.67;100.00;100711.72;5171024;28;20490;-72
2023/01/20 05:33:53;;;;;;;11.38;4.95;;;3.00;99.90;;;2.69;100.00;100712.72;5170768;28;20409;-73
2023/01/20 05:36:27;;;;;;;9.93;4.25;;;3.00;99.90;;;2.67;100.00;100714.28;5170937;28;20046;-72
2023/01/20 05:39:00;;;;;;;9.65;4.50;;;3.00;99.90;;;2.64;100.00;100725.28;5170522;28;20542;-73
2023/01/20 05:41:33;;;;;;;8.98;3.67;;;3.00;99.90;;;2.62;100.00;100720.84;5170536;28;20077;-72
2023/01/20 05:44:05;;;;;;;7.25;3.58;;;3.00;99.90;;;2.61;100.00;100724.22;5170342;28;20096;-72
2023/01/20 05:46:38;;;;;;;8.30;3.45;;;2.90;99.90;;;2.60;100.00;100728.44;5170375;28;20046;-72
2023/01/20 05:49:11;;;;;;;9.20;4.13;;;2.90;99.90;;;2.59;100.00;100730.91;5170543;28;20046;-72
2023/01/20 05:51:43;;;;;;;7.93;3.63;;;2.90;99.90;;;2.59;100.00;100731.81;5170485;28;20495;-72
2023/01/20 05:54:17;;;;;;;8.73;3.92;;;2.90;99.90;;;2.61;100.00;100734.50;5170464;28;20447;-72
2023/01/20 05:56:50;;;;;;;10.07;4.38;;;2.90;99.90;;;2.61;100.00;100731.94;5185423;28;20054;-72
2023/01/20 05:59:23;;;;;;;11.82;4.47;;;2.90;99.90;;;2.64;100.00;100734.69;5170575;28;20047;-72
2023/01/20 06:01:56;;;;;;;7.82;3.58;;;3.00;99.90;;;2.64;100.00;100747.56;5185752;28;20576;-72
2023/01/20 06:04:28;;;;;;;8.82;3.90;;;3.00;99.90;;;2.65;100.00;100746.75;5170733;28;20042;-73
2023/01/20 06:07:02;;;;;;;8.63;4.00;;;3.00;99.90;;;2.65;100.00;100750.22;5168447;28;20077;-72
2023/01/20 06:09:36;;;;;;;6.97;3.80;;;3.00;99.90;;;2.68;100.00;100746.97;5167417;28;20046;-72
2023/01/20 06:12:08;;;;;;;9.70;3.83;;;3.00;99.90;;;2.65;100.00;100749.34;5182476;28;20104;-72
2023/01/20 06:14:40;;;;;;;7.85;3.45;;;3.00;99.90;;;2.65;100.00;100749.34;5167096;28;20039;-72
2023/01/20 06:17:13;;;;;;;9.90;3.67;;;3.00;99.90;;;2.67;100.00;100756.38;5167424;28;20046;-72
2023/01/20 06:19:45;;;;;;;8.57;3.88;;;3.00;99.90;;;2.69;100.00;100757.38;5167338;28;20527;-72
2023/01/20 06:22:18;;;;;;;9.55;3.55;;;3.00;99.90;;;2.69;100.00;100754.78;5167257;28;20495;-73
2023/01/20 06:24:52;;;;;;;9.68;3.63;;;3.00;99.90;;;2.67;100.00;100753.81;5167291;28;20474;-72
2023/01/20 06:27:24;;;;;;;8.18;3.25;;;3.00;99.90;;;2.71;100.00;100767.75;5167128;28;20133;-72
2023/01/20 06:29:56;;;;;;;7.88;3.42;;;3.00;99.90;;;2.68;100.00;100762.44;5165363;28;20046;-72
2023/01/20 06:32:28;;;;;;;8.80;3.53;;;3.00;99.90;;;2.68;100.00;100765.00;5165512;28;20054;-72
2023/01/20 06:35:00;;;;;;;8.40;3.28;;;3.00;99.90;;;2.67;100.00;100770.91;5165906;28;20705;-73
2023/01/20 06:37:33;;;;;;;7.72;3.20;;;3.00;99.90;;;2.67;100.00;100771.84;5166746;28;20396;-71
2023/01/20 06:40:08;;;;;;;8.50;3.45;;;3.00;99.90;;;2.68;100.00;100775.28;5166109;28;20070;-70
2023/01/20 06:42:40;;;;;;;7.63;3.63;;;3.00;99.90;;;2.68;100.00;100773.59;5166436;28;20034;-72
2023/01/20 06:45:12;;;;;;;8.98;4.10;;;3.00;99.90;;;2.66;100.00;100779.44;5181413;28;20050;-73
2023/01/20 06:47:49;;;;;;;9.65;4.32;;;3.00;99.90;;;2.66;100.00;100780.31;5166236;28;20046;-72
2023/01/20 06:50:21;;;;;;;9.50;4.53;;;3.00;99.90;;;2.63;100.00;100789.53;5166751;28;20073;-72
2023/01/20 06:52:54;;;;;;;10.18;4.30;;;3.00;99.90;;;2.63;100.00;100784.38;5166386;28;20122;-72
2023/01/20 06:55:28;;;;;;;7.55;3.63;;;3.00;99.90;;;2.60;100.00;100789.31;5166483;28;20074;-72
2023/01/20 06:58:00;;;;;;;8.68;4.15;;;3.00;99.90;;;2.58;100.00;100790.91;5166243;28;20211;-71
2023/01/20 07:00:34;;;;;;;8.52;4.22;;;2.90;99.90;;;2.55;100.00;100803.59;5166444;28;20454;-72
2023/01/20 07:03:06;;;;;;;8.27;3.55;;;2.90;99.90;;;2.55;100.00;100803.59;5180903;28;20046;-72
2023/01/20 07:05:39;;;;;;;8.63;3.80;;;2.90;99.90;;;2.55;100.00;100801.00;5165392;28;20054;-63
2023/01/20 07:08:11;;;;;;;10.63;3.97;;;2.90;99.90;;;2.58;100.00;100791.78;5165042;28;20514;-64
2023/01/20 07:10:45;;;;;;;10.15;3.72;;;2.90;99.90;;;2.58;100.00;100812.38;5164902;28;20114;-64
2023/01/20 07:13:17;;;;;;;10.23;3.58;;;2.90;99.90;;;2.60;100.00;100804.75;5165160;28;20080;-65
2023/01/20 07:15:49;;;;;;;9.50;3.85;;;2.90;99.90;;;2.60;100.00;100809.91;5165225;28;20050;-64
2023/01/20 07:18:21;;;;;;;11.55;4.47;;;2.90;99.90;;;2.61;100.00;100809.16;5163906;28;20047;-64
2023/01/20 07:20:54;;;;;;;12.20;4.35;;;2.90;99.90;;;2.58;100.00;100814.06;5164783;28;20112;-64
2023/01/20 07:23:30;;;;;;;14.10;5.15;;;2.90;99.90;;;2.56;100.00;100818.22;5164962;28;20034;-63
2023/01/20 07:26:07;;;;;;;13.02;5.13;;;2.90;99.90;;;2.57;100.00;100822.59;5165513;28;20042;-63
2023/01/20 07:28:40;;;;;;;12.90;5.60;;;2.90;99.90;;;2.56;100.00;100824.28;5164840;28;20549;-64
2023/01/20 07:31:16;;;;;;;12.90;5.35;;;2.90;99.90;;;2.55;100.00;100824.16;5179453;28;20049;-63
2023/01/20 07:33:49;;;;;;;13.82;4.43;;;2.90;99.90;;;2.55;100.00;100821.59;5164733;28;20050;-62
2023/01/20 07:36:22;;;;;;;9.93;4.30;;;2.90;99.90;;;2.57;100.00;100835.44;5164554;28;20104;-63
2023/01/20 07:38:54;;;;;;;9.40;4.03;;;2.90;99.90;;;2.58;100.00;100837.22;5163560;28;20074;-64
2023/01/20 07:41:28;;;;;;;7.95;3.28;;;2.90;99.90;;;2.60;100.00;100840.78;5163756;28;20569;-63
2023/01/20 07:44:00;;;;;;;8.15;3.65;;;2.90;99.90;;;2.59;100.00;100839.00;5163670;28;20152;-65
2023/01/20 07:46:32;;;;;;;11.20;4.13;;;2.90;99.90;;;2.60;100.00;100846.81;5164532;28;20146;-65
2023/01/20 07:49:05;;;;;;;8.52;3.50;;;2.90;99.90;;;2.61;100.00;100847.75;5164223;28;20047;-64
2023/01/20 07:51:38;;;;;;;9.13;3.63;;;2.90;99.90;;;2.60;100.00;100851.97;5164881;28;20050;-64
2023/01/20 07:54:12;;;;;;;9.18;3.83;;;2.90;99.90;;;2.60;100.00;100846.81;5164840;28;20043;-63
2023/01/20 07:56:45;;;;;;;9.07;3.90;;;3.00;99.90;;;2.60;100.00;100853.66;5164404;28;20054;-62
2023/01/20 07:59:17;;;;;;;9.15;3.50;;;3.00;99.90;;;2.61;100.00;100858.94;5164064;28;20046;-64
2023/01/20 08:01:49;;;;;;;9.48;3.75;;;3.00;99.90;;;2.64;100.00;100853.09;5163655;28;20050;-64
2023/01/20 08:04:22;;;;;;;8.25;3.80;;;3.00;99.90;;;2.66;100.00;100864.38;5163477;28;20042;-64
2023/01/20 08:06:54;;;;;;;7.47;3.42;;;3.00;99.90;;;2.69;100.00;100862.00;5162905;28;20050;-64
2023/01/20 08:09:26;;;;;;;7.93;2.90;;;3.00;99.90;;;2.76;100.00;100871.94;5162843;28;20108;-62
2023/01/20 08:12:01;;;;;;;6.68;3.17;;;3.10;99.90;;;2.75;100.00;100875.31;5163016;28;20129;-63
2023/01/20 08:14:33;;;;;;;7.28;3.50;;;3.10;99.90;;;2.75;100.00;100880.44;5162330;28;20061;-63
2023/01/20 08:17:05;;;;;;;7.70;3.55;;;3.10;99.90;;;2.77;100.00;100880.53;5162343;28;20057;-63
2023/01/20 08:19:37;;;;;;;8.95;3.58;;;3.10;99.90;;;2.80;100.00;100886.78;5163758;28;20043;-63
2023/01/20 08:22:09;;;;;;;10.63;3.90;;;3.10;99.90;;;2.80;100.00;100897.06;5163662;28;20050;-64
2023/01/20 08:24:41;;;;;;;10.57;3.50;;;3.10;99.90;;;2.77;100.00;100896.88;5163586;28;20499;-63
2023/01/20 08:27:15;;;;;;;7.05;3.15;;;3.10;99.90;;;2.77;100.00;100896.88;5163603;28;20097;-64
2023/01/20 08:29:48;;;;;;;7.45;3.70;;;3.10;99.90;;;2.80;100.00;100893.59;5163201;28;20439;-63
2023/01/20 08:32:21;;;;;;;9.25;3.45;;;3.10;99.90;;;2.82;100.00;100900.66;5163889;28;20061;-63
2023/01/20 08:34:53;;;;;;;9.48;4.30;;;3.10;99.90;;;2.79;100.00;100905.59;5168162;28;20399;-63
2023/01/20 08:37:26;;;;;;;10.57;4.00;;;3.10;99.90;;;2.76;100.00;100897.66;5183852;28;20065;-63
2023/01/20 08:39:58;;;;;;;9.30;4.00;;;3.10;99.90;;;2.76;100.00;100904.50;5165591;28;20050;-64
2023/01/20 08:42:31;;;;;;;8.88;3.88;;;3.10;99.90;;;2.78;100.00;100910.63;5163658;28;20050;-64
2023/01/20 08:45:07;;;;;;;6.50;3.45;;;3.10;99.90;;;2.84;100.00;100909.38;5163419;28;20500;-63
2023/01/20 08:47:44;;;;;;;;;;;3.10;99.90;;;2.94;100.00;100905.75;5164377;28;20226;-62
2023/01/20 08:50:17;;;;;;;7.60;3.72;;;3.20;99.90;;;2.96;100.00;100911.88;5163233;28;20032;-64
2023/01/20 08:52:49;;;;;;;10.60;4.25;;;3.30;99.90;;;2.98;100.00;100903.44;5163346;28;20046;-63
2023/01/20 08:55:21;;;;;;;8.55;3.95;;;3.30;99.90;;;3.04;100.00;100913.28;5161886;28;20521;-61
2023/01/20 08:57:55;;;;;;;7.80;2.90;;;3.30;99.90;;;3.93;100.00;100901.88;5163325;28;20042;-62
2023/01/20 09:00:27;;;;;;;7.85;3.40;;;4.30;99.90;;;4.21;100.00;100908.75;5162868;28;20053;-62
2023/01/20 09:02:59;;;;;;;7.10;3.30;;;4.60;99.90;;;4.05;100.00;100905.25;5163038;28;20045;-61
2023/01/20 09:05:31;;;;;;;9.30;3.13;;;4.50;99.90;;;3.96;100.00;100902.06;5162963;28;20050;-61
2023/01/20 09:08:04;;;;;;;7.47;3.85;;;4.40;99.90;;;3.88;100.00;100908.44;5162788;28;20046;-62
2023/01/20 09:10:36;;;;;;;7.68;4.03;;;4.30;99.90;;;3.79;100.00;100920.75;5162467;28;20404;-61
2023/01/20 09:13:10;;;;;;;10.35;3.80;;;4.20;99.90;;;3.64;100.00;100909.44;5163559;28;20490;-62
2023/01/20 09:15:42;;;;;;;9.00;3.50;;;4.00;99.90;;;3.53;100.00;100914.81;5166134;28;20118;-61
2023/01/20 09:18:14;;;;;;;7.43;2.97;;;3.90;99.90;;;3.49;100.00;100917.09;5183072;28;20050;-61
2023/01/20 09:20:46;;;;;;;7.03;3.13;;;3.80;99.90;;;3.48;100.00;100912.72;5181796;28;20137;-62
2023/01/20 09:23:18;;;;;;;7.88;3.58;;;3.80;99.90;;;3.47;100.00;100916.13;5148900;28;20518;-62
2023/01/20 09:25:50;;;;;;;8.32;3.60;;;3.80;99.90;;;3.47;100.00;100914.44;5170092;28;20058;-63
2023/01/20 09:28:24;;;;;;;9.75;4.00;;;3.80;99.90;;;3.60;100.00;100907.47;5162793;28;20531;-64
2023/01/20 09:30:58;;;;;;;10.55;3.95;;;3.90;99.90;;;3.68;100.00;100907.16;5128672;28;20046;-63
2023/01/20 09:33:30;;;;;;;8.38;3.92;;;4.00;99.90;;;3.70;100.00;100909.84;5176488;28;20061;-63
2023/01/20 09:36:04;;;;;;;9.30;4.57;;;3.90;99.90;;;3.73;100.00;100904.91;5182744;28;20053;-62
2023/01/20 09:44:47;;;;;;;9.90;4.05;;;4.10;99.90;;;4.01;100.00;100929.03;5143118;28;20471;-54
2023/01/20 09:47:29;;;;;;;7.78;3.45;;;4.20;99.90;;;4.12;100.00;100918.53;5152109;28;20042;-54
2023/01/20 09:53:15;;;;;;;10.57;4.85;;;4.40;99.90;;;4.39;100.00;100919.34;5165527;28;20066;-53
2023/01/20 09:55:52;;;;;;;10.45;4.28;;;4.50;99.90;;;4.55;100.00;100927.19;5163451;28;20569;-55
2023/01/20 09:58:34;;;;;;;10.75;3.90;;;4.60;99.90;;;4.71;100.00;100926.44;5163908;28;20360;-52
2023/01/20 10:01:16;;;;;;;12.77;4.88;;;4.70;99.90;;;4.81;98.58;100919.31;5163636;28;20380;-53
2023/01/20 10:03:55;;;;;;;18.92;5.80;;;4.90;99.90;;;4.79;97.32;100920.03;5164289;28;20093;-53
2023/01/20 10:06:33;;;;;;;12.55;5.10;;;4.90;99.90;;;4.83;97.02;100927.19;5162855;28;20050;-52
2023/01/20 10:09:20;;;;;;;13.65;5.00;;;4.90;99.90;;;4.77;96.18;100930.28;5163855;28;20518;-56
2023/01/20 10:12:02;;;;;;;10.25;3.72;;;4.90;99.90;;;4.72;96.01;100923.06;5165982;28;20047;-54
2023/01/20 10:14:39;;;;;;;10.88;4.20;;;4.90;99.90;;;4.68;95.96;100926.25;5165983;28;20046;-54
2023/01/20 10:17:21;;;;;;;8.57;3.53;;;4.90;99.90;;;4.57;96.03;100928.19;5165684;28;20074;-52
2023/01/20 10:20:01;;;;;;;7.13;3.47;;;4.80;99.90;;;4.52;95.67;100935.66;5165240;28;20046;-52
2023/01/20 10:22:41;;;;;;;11.65;4.20;;;4.70;99.90;;;4.43;94.55;100929.91;5165783;28;20490;-52
2023/01/20 10:25:17;;;;;;;9.35;3.97;;;4.70;99.90;;;4.37;95.32;100929.56;5165755;28;20069;-52
2023/01/20 10:27:55;;;;;;;18.88;7.38;;;4.60;99.90;;;4.33;95.46;100922.41;5165624;28;20043;-52
2023/01/20 10:30:35;;;;;;;12.68;5.82;;;4.60;99.90;;;4.24;95.59;100921.88;5163819;28;20050;-53
2023/01/20 10:33:11;;;;;;;12.32;5.28;;;4.50;99.90;;;4.24;96.54;100921.88;5165537;28;20491;-53
2023/01/20 10:35:48;;;;;;;10.30;4.57;;;4.50;99.90;;;4.25;96.91;100939.13;5165514;28;20499;-52
2023/01/20 10:38:30;;;;;;;8.32;3.80;;;4.50;99.90;;;4.24;96.66;100930.50;5164987;28;20054;-53
2023/01/20 10:41:13;;;;;;;10.60;4.35;;;4.50;99.90;;;4.26;96.45;100930.59;5165140;28;20038;-52
2023/01/20 10:43:46;;;;;;;9.80;3.67;;;4.50;99.90;;;4.27;96.59;100919.47;5165339;28;20415;-54
2023/01/20 10:46:37;;;;;;;8.40;3.70;;;4.50;99.90;;;4.35;96.86;100913.06;5165327;28;20047;-54
2023/01/20 10:49:51;;;;;;;8.07;3.25;;;4.60;99.90;;;4.56;96.87;100906.66;5164888;28;20069;-53
2023/01/20 10:52:43;;;;;;;10.77;4.03;;;4.70;99.90;;;4.69;96.04;100910.84;5164828;28;20046;-55
2023/01/20 10:55:28;;;;;;;10.25;4.07;;;4.80;99.90;;;4.74;95.75;100919.75;5165315;28;20056;-53
2023/01/20 10:58:15;;;;;;;9.05;3.72;;;4.90;99.90;;;4.72;94.72;100913.63;5165225;28;20058;-55
2023/01/20 11:00:48;;;;;;;9.68;3.45;;;4.90;99.90;;;4.66;94.69;100918.41;5164646;28;20046;-53